sensor_id;sensor_type;location;lat;lon;timestamp;pressure;altitude;pressure_sealevel;temperature;humidity
38718;BME280;24468;52.128;9.278;2023-03-11T00:00:20;99197.16;;;0.22;100.00
38718;BME280;24468;52.128;9.278;2023-03-11T00:02:48;99204.09;;;0.26;100.00
38718;BME280;24468;52.128;9.278;2023-03-11T00:05:27;99203.16;;;0.29;100.00
38718;BME280;24468;52.128;9.278;2023-03-11T00:07:54;99208.56;;;0.24;100.00
38718;BME280;24468;52.128;9.278;2023-03-11T00:10:42;99216.09;;;0.42;100.00
38718;BME280;24468;52.128;9.278;2023-03-11T00:13:11;99246.72;;;0.18;100.00
38718;BME280;24468;52.128;9.278;2023-03-11T00:15:38;99238.34;;;0.37;100.00
38718;BME280;24468;52.128;9.278;2023-03-11T00:18:05;99255.09;;;0.39;100.00
38718;BME280;24468;52.128;9.278;2023-03-11T00:20:35;99269.31;;;0.36;100.00
38718;BME280;24468;52.128;9.278;2023-03-11T00:23:01;99271.19;;;0.31;100.00
38718;BME280;24468;52.128;9.278;2023-03-11T00:25:30;99276.59;;;0.27;100.00
38718;BME280;24468;52.128;9.278;2023-03-11T00:27:56;99294.13;;;0.32;100.00
38718;BME280;24468;52.128;9.278;2023-03-11T00:30:22;99288.13;;;0.24;100.00
38718;BME280;24468;52.128;9.278;2023-03-11T00:32:51;99290.44;;;0.39;100.00
38718;BME280;24468;52.128;9.278;2023-03-11T00:35:20;99302.25;;;0.26;100.00
38718;BME280;24468;52.128;9.278;2023-03-11T00:37:47;99313.41;;;0.40;100.00
38718;BME280;24468;52.128;9.278;2023-03-11T00:40:17;99307.94;;;0.47;100.00
38718;BME280;24468;52.128;9.278;2023-03-11T00:42:43;99304.91;;;0.26;100.00
38718;BME280;24468;52.128;9.278;2023-03-11T00:45:09;99291.56;;;0.29;100.00
38718;BME280;24468;52.128;9.278;2023-03-11T00:47:35;99306.28;;;0.44;100.00
38718;BME280;24468;52.128;9.278;2023-03-11T00:50:00;99307.25;;;0.38;100.00
38718;BME280;24468;52.128;9.278;2023-03-11T00:52:26;99315.28;;;0.37;100.00
38718;BME280;24468;52.128;9.278;2023-03-11T00:54:53;99326.09;;;0.28;100.00
38718;BME280;24468;52.128;9.278;2023-03-11T00:57:19;99334.53;;;0.45;100.00
38718;BME280;24468;52.128;9.278;2023-03-11T00:59:45;99333.00;;;0.35;100.00
38718;BME280;24468;52.128;9.278;2023-03-11T01:02:10;99322.91;;;0.51;100.00
38718;BME280;24468;52.128;9.278;2023-03-11T01:04:36;99331.34;;;0.29;100.00
38718;BME280;24468;52.128;9.278;2023-03-11T01:07:02;99341.16;;;0.64;100.00
38718;BME280;24468;52.128;9.278;2023-03-11T01:09:27;99346.06;;;0.44;100.00
38718;BME280;24468;52.128;9.278;2023-03-11T01:11:53;99342.53;;;0.43;100.00
38718;BME280;24468;52.128;9.278;2023-03-11T01:14:19;99347.72;;;0.50;100.00
38718;BME280;24468;52.128;9.278;2023-03-11T01:16:45;99348.50;;;0.53;100.00
38718;BME280;24468;52.128;9.278;2023-03-11T01:19:11;99354.97;;;0.41;100.00
38718;BME280;24468;52.128;9.278;2023-03-11T01:21:37;99367.41;;;0.38;100.00
38718;BME280;24468;52.128;9.278;2023-03-11T01:24:02;99367.88;;;0.57;100.00
38718;BME280;24468;52.128;9.278;2023-03-11T01:26:28;99369.66;;;0.56;100.00
38718;BME280;24468;52.128;9.278;2023-03-11T01:28:53;99365.03;;;0.66;100.00
38718;BME280;24468;52.128;9.278;2023-03-11T01:31:19;99360.75;;;0.60;100.00
38718;BME280;24468;52.128;9.278;2023-03-11T01:33:45;99377.53;;;0.61;100.00
38718;BME280;24468;52.128;9.278;2023-03-11T01:36:10;99391.13;;;0.46;100.00
38718;BME280;24468;52.128;9.278;2023-03-11T01:38:36;99386.75;;;0.44;100.00
38718;BME280;24468;52.128;9.278;2023-03-11T01:41:02;99393.72;;;0.49;100.00
38718;BME280;24468;52.128;9.278;2023-03-11T01:48:48;99400.66;;;0.56;100.00
38718;BME280;24468;52.128;9.278;2023-03-11T01:51:19;99399.59;;;0.63;100.00
38718;BME280;24468;52.128;9.278;2023-03-11T01:53:47;99404.47;;;0.41;100.00
38718;BME280;24468;52.128;9.278;2023-03-11T01:56:13;99410.63;;;0.43;100.00
38718;BME280;24468;52.128;9.278;2023-03-11T01:58:42;99421.09;;;0.51;100.00
38718;BME280;24468;52.128;9.278;2023-03-11T02:01:09;99424.47;;;0.57;100.00
38718;BME280;24468;52.128;9.278;2023-03-11T02:03:38;99421.00;;;0.55;100.00
38718;BME280;24468;52.128;9.278;2023-03-11T02:06:09;99422.97;;;0.46;100.00
38718;BME280;24468;52.128;9.278;2023-03-11T02:08:36;99432.88;;;0.37;100.00
38718;BME280;24468;52.128;9.278;2023-03-11T02:11:05;99440.13;;;0.29;100.00
38718;BME280;24468;52.128;9.278;2023-03-11T02:13:33;99442.75;;;0.31;100.00
38718;BME280;24468;52.128;9.278;2023-03-11T02:16:01;99449.66;;;0.38;100.00
38718;BME280;24468;52.128;9.278;2023-03-11T02:18:26;99460.56;;;0.24;100.00
38718;BME280;24468;52.128;9.278;2023-03-11T02:29:15;99463.09;;;0.30;100.00
38718;BME280;24468;52.128;9.278;2023-03-11T02:31:41;99453.69;;;0.57;100.00
38718;BME280;24468;52.128;9.278;2023-03-11T02:34:16;99459.56;;;0.30;100.00
38718;BME280;24468;52.128;9.278;2023-03-11T02:36:43;99476.31;;;0.33;100.00
38718;BME280;24468;52.128;9.278;2023-03-11T02:39:09;99470.94;;;0.36;100.00
38718;BME280;24468;52.128;9.278;2023-03-11T02:41:38;99480.41;;;0.50;100.00
38718;BME280;24468;52.128;9.278;2023-03-11T02:44:07;99488.09;;;0.62;100.00
38718;BME280;24468;52.128;9.278;2023-03-11T02:46:36;99483.13;;;0.45;100.00
38718;BME280;24468;52.128;9.278;2023-03-11T02:49:04;99486.13;;;0.28;100.00
38718;BME280;24468;52.128;9.278;2023-03-11T02:51:30;99500.13;;;0.35;100.00
38718;BME280;24468;52.128;9.278;2023-03-11T02:53:58;99507.69;;;0.55;100.00
38718;BME280;24468;52.128;9.278;2023-03-11T02:56:26;99498.06;;;0.49;100.00
38718;BME280;24468;52.128;9.278;2023-03-11T02:58:52;99497.69;;;0.69;100.00
38718;BME280;24468;52.128;9.278;2023-03-11T03:01:18;99503.00;;;0.69;100.00
38718;BME280;24468;52.128;9.278;2023-03-11T03:03:44;99506.97;;;0.47;100.00
38718;BME280;24468;52.128;9.278;2023-03-11T03:06:10;99503.28;;;0.55;100.00
38718;BME280;24468;52.128;9.278;2023-03-11T03:08:36;99508.16;;;0.75;100.00
38718;BME280;24468;52.128;9.278;2023-03-11T03:11:01;99500.78;;;0.89;100.00
38718;BME280;24468;52.128;9.278;2023-03-11T03:13:28;99501.84;;;0.81;100.00
38718;BME280;24468;52.128;9.278;2023-03-11T03:15:54;99506.38;;;0.77;100.00
38718;BME280;24468;52.128;9.278;2023-03-11T03:18:19;99524.72;;;0.88;100.00
38718;BME280;24468;52.128;9.278;2023-03-11T03:20:45;99518.13;;;0.64;100.00
38718;BME280;24468;52.128;9.278;2023-03-11T03:23:11;99522.25;;;0.79;100.00
38718;BME280;24468;52.128;9.278;2023-03-11T03:25:36;99516.41;;;1.03;100.00
38718;BME280;24468;52.128;9.278;2023-03-11T03:28:02;99528.97;;;0.95;100.00
38718;BME280;24468;52.128;9.278;2023-03-11T03:30:28;99531.97;;;0.80;100.00
38718;BME280;24468;52.128;9.278;2023-03-11T03:32:54;99544.13;;;0.90;100.00
38718;BME280;24468;52.128;9.278;2023-03-11T03:35:20;99541.59;;;0.84;100.00
38718;BME280;24468;52.128;9.278;2023-03-11T03:37:45;99573.16;;;0.54;100.00
38718;BME280;24468;52.128;9.278;2023-03-11T03:40:12;99552.50;;;0.72;100.00
38718;BME280;24468;52.128;9.278;2023-03-11T03:42:37;99556.75;;;0.80;100.00
38718;BME280;24468;52.128;9.278;2023-03-11T03:45:05;99557.69;;;0.78;100.00
38718;BME280;24468;52.128;9.278;2023-03-11T03:47:33;99564.06;;;0.69;100.00
38718;BME280;24468;52.128;9.278;2023-03-11T03:49:59;99582.84;;;0.57;100.00
38718;BME280;24468;52.128;9.278;2023-03-11T03:52:24;99577.47;;;0.60;100.00
38718;BME280;24468;52.128;9.278;2023-03-11T03:54:50;99580.38;;;0.93;100.00
38718;BME280;24468;52.128;9.278;2023-03-11T03:57:16;99596.16;;;0.99;100.00
38718;BME280;24468;52.128;9.278;2023-03-11T03:59:42;99603.22;;;0.55;100.00
38718;BME280;24468;52.128;9.278;2023-03-11T04:02:07;99593.41;;;0.60;100.00
38718;BME280;24468;52.128;9.278;2023-03-11T04:04:33;99596.78;;;0.68;100.00
38718;BME280;24468;52.128;9.278;2023-03-11T04:06:58;99597.03;;;0.56;100.00
38718;BME280;24468;52.128;9.278;2023-03-11T04:09:24;99603.28;;;0.53;100.00
38718;BME280;24468;52.128;9.278;2023-03-11T04:11:50;99603.06;;;0.64;100.00
38718;BME280;24468;52.128;9.278;2023-03-11T04:14:15;99619.84;;;0.66;100.00
38718;BME280;24468;52.128;9.278;2023-03-11T04:16:41;99620.06;;;0.54;100.00
38718;BME280;24468;52.128;9.278;2023-03-11T04:19:07;99611.91;;;0.64;100.00
38718;BME280;24468;52.128;9.278;2023-03-11T04:21:33;99613.72;;;0.62;100.00
38718;BME280;24468;52.128;9.278;2023-03-11T04:23:59;99612.44;;;0.83;100.00
38718;BME280;24468;52.128;9.278;2023-03-11T04:26:24;99610.44;;;0.93;100.00
38718;BME280;24468;52.128;9.278;2023-03-11T04:28:50;99616.47;;;0.56;100.00
38718;BME280;24468;52.128;9.278;2023-03-11T04:31:15;99611.91;;;0.64;100.00
38718;BME280;24468;52.128;9.278;2023-03-11T04:33:41;99614.34;;;0.75;100.00
38718;BME280;24468;52.128;9.278;2023-03-11T04:36:08;99616.09;;;0.76;100.00
38718;BME280;24468;52.128;9.278;2023-03-11T04:38:34;99621.66;;;0.64;100.00
38718;BME280;24468;52.128;9.278;2023-03-11T04:41:01;99631.94;;;0.81;100.00
38718;BME280;24468;52.128;9.278;2023-03-11T04:43:27;99622.91;;;0.89;100.00
38718;BME280;24468;52.128;9.278;2023-03-11T04:45:52;99625.34;;;1.02;100.00
38718;BME280;24468;52.128;9.278;2023-03-11T04:48:18;99640.63;;;0.91;100.00
38718;BME280;24468;52.128;9.278;2023-03-11T04:50:43;99643.22;;;0.92;100.00
38718;BME280;24468;52.128;9.278;2023-03-11T04:53:09;99644.97;;;0.95;100.00
38718;BME280;24468;52.128;9.278;2023-03-11T04:55:34;99649.59;;;0.83;100.00
38718;BME280;24468;52.128;9.278;2023-03-11T04:58:00;99659.34;;;0.83;100.00
38718;BME280;24468;52.128;9.278;2023-03-11T05:00:25;99661.56;;;1.06;100.00
38718;BME280;24468;52.128;9.278;2023-03-11T05:02:51;99658.31;;;0.92;100.00
38718;BME280;24468;52.128;9.278;2023-03-11T05:05:17;99657.31;;;0.96;100.00
38718;BME280;24468;52.128;9.278;2023-03-11T05:07:46;99665.50;;;0.85;100.00
38718;BME280;24468;52.128;9.278;2023-03-11T05:10:12;99672.59;;;0.84;100.00
38718;BME280;24468;52.128;9.278;2023-03-11T05:12:39;99665.41;;;0.89;100.00
38718;BME280;24468;52.128;9.278;2023-03-11T05:15:05;99675.81;;;1.02;100.00
38718;BME280;24468;52.128;9.278;2023-03-11T05:17:31;99666.19;;;0.96;100.00
38718;BME280;24468;52.128;9.278;2023-03-11T05:19:56;99676.53;;;1.10;100.00
38718;BME280;24468;52.128;9.278;2023-03-11T05:22:22;99685.13;;;0.76;100.00
38718;BME280;24468;52.128;9.278;2023-03-11T05:24:47;99684.19;;;0.79;100.00
38718;BME280;24468;52.128;9.278;2023-03-11T05:27:13;99696.59;;;0.78;100.00
38718;BME280;24468;52.128;9.278;2023-03-11T05:29:43;99694.88;;;0.77;100.00
38718;BME280;24468;52.128;9.278;2023-03-11T05:32:10;99701.41;;;0.58;100.00
38718;BME280;24468;52.128;9.278;2023-03-11T05:34:36;99697.34;;;0.86;100.00
38718;BME280;24468;52.128;9.278;2023-03-11T05:37:02;99694.03;;;0.74;100.00
38718;BME280;24468;52.128;9.278;2023-03-11T05:39:28;99701.00;;;0.79;100.00
38718;BME280;24468;52.128;9.278;2023-03-11T05:41:54;99711.09;;;0.60;100.00
38718;BME280;24468;52.128;9.278;2023-03-11T05:44:21;99702.22;;;0.60;100.00
38718;BME280;24468;52.128;9.278;2023-03-11T05:46:47;99706.47;;;0.72;100.00
38718;BME280;24468;52.128;9.278;2023-03-11T05:49:12;99716.16;;;0.74;100.00
38718;BME280;24468;52.128;9.278;2023-03-11T05:51:38;99722.34;;;0.73;100.00
38718;BME280;24468;52.128;9.278;2023-03-11T05:54:05;99731.00;;;0.84;100.00
38718;BME280;24468;52.128;9.278;2023-03-11T05:56:36;99726.56;;;0.86;100.00
38718;BME280;24468;52.128;9.278;2023-03-11T05:59:01;99729.34;;;0.79;100.00
38718;BME280;24468;52.128;9.278;2023-03-11T06:01:27;99737.78;;;1.01;100.00
38718;BME280;24468;52.128;9.278;2023-03-11T06:03:52;99732.28;;;0.63;100.00
38718;BME280;24468;52.128;9.278;2023-03-11T06:06:18;99748.91;;;0.75;100.00
38718;BME280;24468;52.128;9.278;2023-03-11T06:08:44;99762.31;;;0.65;100.00
38718;BME280;24468;52.128;9.278;2023-03-11T06:11:14;99753.59;;;0.57;100.00
38718;BME280;24468;52.128;9.278;2023-03-11T06:13:40;99750.81;;;0.65;100.00
38718;BME280;24468;52.128;9.278;2023-03-11T06:16:07;99760.91;;;0.96;100.00
38718;BME280;24468;52.128;9.278;2023-03-11T06:18:33;99754.78;;;0.92;100.00
38718;BME280;24468;52.128;9.278;2023-03-11T06:21:00;99757.41;;;0.94;100.00
38718;BME280;24468;52.128;9.278;2023-03-11T06:23:26;99762.72;;;0.94;100.00
38718;BME280;24468;52.128;9.278;2023-03-11T06:26:01;99766.16;;;0.99;100.00
38718;BME280;24468;52.128;9.278;2023-03-11T06:28:28;99770.72;;;0.92;100.00
38718;BME280;24468;52.128;9.278;2023-03-11T06:30:54;99780.16;;;1.10;100.00
38718;BME280;24468;52.128;9.278;2023-03-11T06:33:23;99772.19;;;1.07;100.00
38718;BME280;24468;52.128;9.278;2023-03-11T06:35:59;99774.59;;;1.22;100.00
38718;BME280;24468;52.128;9.278;2023-03-11T06:38:25;99785.22;;;1.22;100.00
38718;BME280;24468;52.128;9.278;2023-03-11T06:40:51;99788.44;;;0.92;100.00
38718;BME280;24468;52.128;9.278;2023-03-11T06:43:17;99794.34;;;1.07;100.00
38718;BME280;24468;52.128;9.278;2023-03-11T06:45:44;99805.00;;;1.06;100.00
38718;BME280;24468;52.128;9.278;2023-03-11T06:48:09;99791.41;;;1.23;100.00
38718;BME280;24468;52.128;9.278;2023-03-11T06:50:35;99800.34;;;1.17;100.00
38718;BME280;24468;52.128;9.278;2023-03-11T06:53:01;99814.44;;;1.24;100.00
38718;BME280;24468;52.128;9.278;2023-03-11T06:55:27;99804.50;;;1.33;100.00
38718;BME280;24468;52.128;9.278;2023-03-11T06:57:53;99806.81;;;1.52;100.00
38718;BME280;24468;52.128;9.278;2023-03-11T07:00:18;99823.69;;;1.51;100.00
38718;BME280;24468;52.128;9.278;2023-03-11T07:02:44;99820.84;;;1.59;100.00
38718;BME280;24468;52.128;9.278;2023-03-11T07:05:09;99824.63;;;1.45;100.00
38718;BME280;24468;52.128;9.278;2023-03-11T07:07:36;99841.56;;;1.43;100.00
38718;BME280;24468;52.128;9.278;2023-03-11T07:10:03;99833.59;;;1.40;100.00
38718;BME280;24468;52.128;9.278;2023-03-11T07:12:29;99835.69;;;1.24;100.00
38718;BME280;24468;52.128;9.278;2023-03-11T07:14:55;99845.28;;;1.32;100.00
38718;BME280;24468;52.128;9.278;2023-03-11T07:17:21;99842.56;;;1.36;100.00
38718;BME280;24468;52.128;9.278;2023-03-11T07:19:47;99847.44;;;1.59;100.00
38718;BME280;24468;52.128;9.278;2023-03-11T07:22:13;99856.97;;;1.22;100.00
38718;BME280;24468;52.128;9.278;2023-03-11T07:24:39;99867.81;;;1.58;100.00
38718;BME280;24468;52.128;9.278;2023-03-11T07:27:04;99872.81;;;1.76;100.00
38718;BME280;24468;52.128;9.278;2023-03-11T07:29:30;99866.16;;;1.99;100.00
38718;BME280;24468;52.128;9.278;2023-03-11T07:31:56;99873.69;;;1.77;100.00
38718;BME280;24468;52.128;9.278;2023-03-11T07:34:21;99886.84;;;1.83;100.00
38718;BME280;24468;52.128;9.278;2023-03-11T07:36:47;99882.13;;;1.97;100.00
38718;BME280;24468;52.128;9.278;2023-03-11T07:39:16;99878.84;;;1.85;100.00
38718;BME280;24468;52.128;9.278;2023-03-11T07:41:42;99884.03;;;1.92;100.00
38718;BME280;24468;52.128;9.278;2023-03-11T07:44:11;99877.78;;;1.93;100.00
38718;BME280;24468;52.128;9.278;2023-03-11T07:46:37;99884.47;;;2.14;100.00
38718;BME280;24468;52.128;9.278;2023-03-11T07:49:03;99909.66;;;1.96;100.00
38718;BME280;24468;52.128;9.278;2023-03-11T07:51:31;99917.53;;;1.53;100.00
38718;BME280;24468;52.128;9.278;2023-03-11T07:53:58;99908.88;;;2.35;100.00
38718;BME280;24468;52.128;9.278;2023-03-11T07:56:28;99909.94;;;2.28;100.00
38718;BME280;24468;52.128;9.278;2023-03-11T07:58:54;99925.41;;;2.51;100.00
38718;BME280;24468;52.128;9.278;2023-03-11T08:01:23;99918.69;;;2.75;100.00
38718;BME280;24468;52.128;9.278;2023-03-11T08:03:51;99928.25;;;2.82;100.00
38718;BME280;24468;52.128;9.278;2023-03-11T08:06:25;99930.38;;;2.67;100.00
38718;BME280;24468;52.128;9.278;2023-03-11T08:08:51;99934.06;;;2.60;100.00
38718;BME280;24468;52.128;9.278;2023-03-11T08:11:18;99938.03;;;2.83;100.00
38718;BME280;24468;52.128;9.278;2023-03-11T08:13:45;99940.44;;;2.94;100.00
38718;BME280;24468;52.128;9.278;2023-03-11T08:16:14;99950.88;;;2.62;100.00
38718;BME280;24468;52.128;9.278;2023-03-11T08:18:41;99945.78;;;2.94;100.00
38718;BME280;24468;52.128;9.278;2023-03-11T08:21:14;99953.94;;;2.44;100.00
38718;BME280;24468;52.128;9.278;2023-03-11T08:23:40;99958.75;;;2.68;100.00
38718;BME280;24468;52.128;9.278;2023-03-11T08:26:09;99979.44;;;2.56;100.00
38718;BME280;24468;52.128;9.278;2023-03-11T08:28:36;99981.88;;;2.23;100.00
38718;BME280;24468;52.128;9.278;2023-03-11T08:31:02;99971.69;;;2.45;100.00
38718;BME280;24468;52.128;9.278;2023-03-11T08:33:28;99980.97;;;2.67;100.00
38718;BME280;24468;52.128;9.278;2023-03-11T08:35:54;99970.63;;;2.94;100.00
38718;BME280;24468;52.128;9.278;2023-03-11T08:38:19;99982.53;;;3.18;100.00
38718;BME280;24468;52.128;9.278;2023-03-11T08:40:45;99983.72;;;3.03;100.00
38718;BME280;24468;52.128;9.278;2023-03-11T08:43:14;99987.28;;;2.63;100.00
38718;BME280;24468;52.128;9.278;2023-03-11T08:45:40;99991.38;;;2.80;100.00
38718;BME280;24468;52.128;9.278;2023-03-11T08:48:09;99996.94;;;3.47;100.00
38718;BME280;24468;52.128;9.278;2023-03-11T08:50:35;99990.13;;;3.35;100.00
38718;BME280;24468;52.128;9.278;2023-03-11T08:53:01;99992.13;;;3.63;100.00
38718;BME280;24468;52.128;9.278;2023-03-11T08:55:27;99999.78;;;3.75;100.00
38718;BME280;24468;52.128;9.278;2023-03-11T08:57:53;100006.47;;;3.93;100.00
38718;BME280;24468;52.128;9.278;2023-03-11T09:00:20;100010.97;;;3.91;100.00
38718;BME280;24468;52.128;9.278;2023-03-11T09:02:46;100014.59;;;3.52;100.00
38718;BME280;24468;52.128;9.278;2023-03-11T09:05:12;100004.31;;;4.07;100.00
38718;BME280;24468;52.128;9.278;2023-03-11T09:07:38;99991.25;;;4.29;100.00
38718;BME280;24468;52.128;9.278;2023-03-11T09:10:05;100006.94;;;3.74;100.00
38718;BME280;24468;52.128;9.278;2023-03-11T09:12:31;100007.97;;;3.69;100.00
38718;BME280;24468;52.128;9.278;2023-03-11T09:14:56;100015.41;;;4.24;100.00
38718;BME280;24468;52.128;9.278;2023-03-11T09:17:22;100021.69;;;4.23;100.00
38718;BME280;24468;52.128;9.278;2023-03-11T09:19:47;100024.75;;;3.74;100.00
38718;BME280;24468;52.128;9.278;2023-03-11T09:22:13;100027.91;;;3.54;100.00
38718;BME280;24468;52.128;9.278;2023-03-11T09:24:39;100032.09;;;2.85;100.00
38718;BME280;24468;52.128;9.278;2023-03-11T09:27:05;100026.31;;;3.81;100.00
38718;BME280;24468;52.128;9.278;2023-03-11T09:29:31;100032.22;;;3.95;100.00
38718;BME280;24468;52.128;9.278;2023-03-11T09:31:57;100038.66;;;4.21;100.00
38718;BME280;24468;52.128;9.278;2023-03-11T09:34:23;100034.38;;;3.79;100.00
38718;BME280;24468;52.128;9.278;2023-03-11T09:36:49;100043.06;;;3.88;100.00
38718;BME280;24468;52.128;9.278;2023-03-11T09:39:14;100048.13;;;3.63;100.00
38718;BME280;24468;52.128;9.278;2023-03-11T09:42:18;100044.00;;;4.19;100.00
38718;BME280;24468;52.128;9.278;2023-03-11T09:45:02;100048.13;;;3.98;100.00
38718;BME280;24468;52.128;9.278;2023-03-11T09:48:11;100044.69;;;4.28;100.00
38718;BME280;24468;52.128;9.278;2023-03-11T09:51:02;100045.69;;;4.25;100.00
38718;BME280;24468;52.128;9.278;2023-03-11T09:53:40;100048.78;;;4.41;100.00
38718;BME280;24468;52.128;9.278;2023-03-11T09:56:14;100057.16;;;4.29;100.00
38718;BME280;24468;52.128;9.278;2023-03-11T09:59:02;100060.28;;;4.10;100.00
38718;BME280;24468;52.128;9.278;2023-03-11T10:01:33;100060.59;;;4.65;100.00
38718;BME280;24468;52.128;9.278;2023-03-11T10:04:14;100060.72;;;4.60;100.00
38718;BME280;24468;52.128;9.278;2023-03-11T10:06:44;100060.50;;;4.35;100.00
38718;BME280;24468;52.128;9.278;2023-03-11T10:09:36;100057.00;;;4.33;100.00
38718;BME280;24468;52.128;9.278;2023-03-11T10:12:24;100055.63;;;4.53;100.00
38718;BME280;24468;52.128;9.278;2023-03-11T10:15:15;100052.38;;;4.73;100.00
38718;BME280;24468;52.128;9.278;2023-03-11T10:18:25;100052.59;;;4.65;100.00
38718;BME280;24468;52.128;9.278;2023-03-11T10:24:16;100051.06;;;5.17;100.00
38718;BME280;24468;52.128;9.278;2023-03-11T10:26:49;100051.88;;;4.89;100.00
38718;BME280;24468;52.128;9.278;2023-03-11T10:29:41;100053.22;;;5.04;100.00
38718;BME280;24468;52.128;9.278;2023-03-11T10:32:25;100052.97;;;4.82;100.00
38718;BME280;24468;52.128;9.278;2023-03-11T10:34:59;100056.81;;;5.05;100.00
38718;BME280;24468;52.128;9.278;2023-03-11T10:37:43;100065.19;;;4.27;100.00
38718;BME280;24468;52.128;9.278;2023-03-11T10:40:29;100063.38;;;5.23;100.00
38718;BME280;24468;52.128;9.278;2023-03-11T10:42:59;100077.56;;;4.31;100.00
38718;BME280;24468;52.128;9.278;2023-03-11T10:45:36;100067.66;;;4.35;100.00
38718;BME280;24468;52.128;9.278;2023-03-11T10:48:14;100073.09;;;4.30;100.00
38718;BME280;24468;52.128;9.278;2023-03-11T10:50:57;100085.25;;;3.72;100.00
38718;BME280;24468;52.128;9.278;2023-03-11T10:53:25;100074.13;;;4.59;100.00
38718;BME280;24468;52.128;9.278;2023-03-11T10:55:57;100078.78;;;4.18;100.00
38718;BME280;24468;52.128;9.278;2023-03-11T10:58:27;100078.34;;;4.00;99.86
38718;BME280;24468;52.128;9.278;2023-03-11T11:01:14;100086.75;;;3.84;100.00
38718;BME280;24468;52.128;9.278;2023-03-11T11:03:50;100095.28;;;4.34;100.00
38718;BME280;24468;52.128;9.278;2023-03-11T11:06:32;100102.16;;;4.08;98.67
38718;BME280;24468;52.128;9.278;2023-03-11T11:09:21;100105.63;;;4.46;96.79
38718;BME280;24468;52.128;9.278;2023-03-11T11:12:05;100088.63;;;4.83;90.99
38718;BME280;24468;52.128;9.278;2023-03-11T11:14:47;100094.47;;;4.96;93.35
38718;BME280;24468;52.128;9.278;2023-03-11T11:17:32;100094.53;;;5.53;92.99
38718;BME280;24468;52.128;9.278;2023-03-11T11:20:01;100087.25;;;4.99;87.28
38718;BME280;24468;52.128;9.278;2023-03-11T11:22:38;100086.13;;;5.38;88.09
38718;BME280;24468;52.128;9.278;2023-03-11T11:25:36;100087.72;;;5.13;89.18
38718;BME280;24468;52.128;9.278;2023-03-11T11:28:17;100095.75;;;4.50;91.33
38718;BME280;24468;52.128;9.278;2023-03-11T11:31:04;100098.34;;;4.85;93.61
38718;BME280;24468;52.128;9.278;2023-03-11T11:33:52;100091.63;;;4.71;84.85
38718;BME280;24468;52.128;9.278;2023-03-11T11:36:22;100096.13;;;5.61;93.10
38718;BME280;24468;52.128;9.278;2023-03-11T11:38:52;100098.03;;;5.27;89.20
38718;BME280;24468;52.128;9.278;2023-03-11T11:41:21;100087.59;;;5.48;88.52
38718;BME280;24468;52.128;9.278;2023-03-11T11:44:00;100095.09;;;5.93;87.20
38718;BME280;24468;52.128;9.278;2023-03-11T11:46:40;100092.19;;;5.43;83.24
38718;BME280;24468;52.128;9.278;2023-03-11T11:51:50;100096.78;;;4.77;88.62
38718;BME280;24468;52.128;9.278;2023-03-11T11:54:46;100101.34;;;4.73;89.64
38718;BME280;24468;52.128;9.278;2023-03-11T11:57:17;100101.81;;;5.48;89.61
38718;BME280;24468;52.128;9.278;2023-03-11T11:59:44;100104.47;;;4.89;86.84
38718;BME280;24468;52.128;9.278;2023-03-11T12:05:28;100093.31;;;5.35;88.49
38718;BME280;24468;52.128;9.278;2023-03-11T12:11:05;100094.75;;;4.86;93.91
38718;BME280;24468;52.128;9.278;2023-03-11T12:13:56;100102.88;;;5.72;90.44
38718;BME280;24468;52.128;9.278;2023-03-11T12:16:58;100097.81;;;5.63;85.33
38718;BME280;24468;52.128;9.278;2023-03-11T12:22:48;100087.78;;;5.42;87.68
38718;BME280;24468;52.128;9.278;2023-03-11T12:25:32;100086.38;;;5.86;89.88
38718;BME280;24468;52.128;9.278;2023-03-11T12:31:03;100087.13;;;5.63;92.74
38718;BME280;24468;52.128;9.278;2023-03-11T12:33:41;100084.34;;;4.76;87.46
38718;BME280;24468;52.128;9.278;2023-03-11T12:36:22;100081.66;;;5.07;87.57
38718;BME280;24468;52.128;9.278;2023-03-11T12:38:50;100089.59;;;5.69;91.08
38718;BME280;24468;52.128;9.278;2023-03-11T12:41:31;100094.69;;;6.07;87.14
38718;BME280;24468;52.128;9.278;2023-03-11T12:44:04;100100.94;;;5.77;78.92
38718;BME280;24468;52.128;9.278;2023-03-11T12:47:03;100084.44;;;5.91;79.82
38718;BME280;24468;52.128;9.278;2023-03-11T12:49:47;100090.31;;;5.74;81.60
38718;BME280;24468;52.128;9.278;2023-03-11T12:54:44;100093.38;;;5.62;80.32
38718;BME280;24468;52.128;9.278;2023-03-11T13:03:19;100100.38;;;5.96;76.61
38718;BME280;24468;52.128;9.278;2023-03-11T13:06:36;100097.91;;;6.16;74.72
38718;BME280;24468;52.128;9.278;2023-03-11T13:09:13;100106.56;;;5.98;77.42
38718;BME280;24468;52.128;9.278;2023-03-11T13:11:47;100114.09;;;6.13;74.10
38718;BME280;24468;52.128;9.278;2023-03-11T13:16:54;100103.59;;;6.07;79.75
38718;BME280;24468;52.128;9.278;2023-03-11T13:21:56;100098.91;;;6.65;75.30
38718;BME280;24468;52.128;9.278;2023-03-11T13:27:01;100110.78;;;6.32;74.99
38718;BME280;24468;52.128;9.278;2023-03-11T13:36:17;100122.16;;;6.65;65.67
38718;BME280;24468;52.128;9.278;2023-03-11T13:39:16;100120.19;;;6.17;68.17
38718;BME280;24468;52.128;9.278;2023-03-11T13:41:45;100112.94;;;5.94;68.36
38718;BME280;24468;52.128;9.278;2023-03-11T13:46:47;100104.63;;;6.80;68.89
38718;BME280;24468;52.128;9.278;2023-03-11T13:49:48;100120.78;;;6.53;65.99
38718;BME280;24468;52.128;9.278;2023-03-11T13:52:28;100108.31;;;6.77;67.35
38718;BME280;24468;52.128;9.278;2023-03-11T13:57:35;100128.56;;;5.78;77.30
38718;BME280;24468;52.128;9.278;2023-03-11T14:00:15;100131.09;;;5.25;78.86
38718;BME280;24468;52.128;9.278;2023-03-11T14:02:55;100132.41;;;5.69;77.56
38718;BME280;24468;52.128;9.278;2023-03-11T14:13:45;100136.69;;;6.05;72.07
38718;BME280;24468;52.128;9.278;2023-03-11T14:21:41;100146.88;;;7.23;62.19
38718;BME280;24468;52.128;9.278;2023-03-11T14:24:29;100148.09;;;6.64;60.30
38718;BME280;24468;52.128;9.278;2023-03-11T14:26:57;100145.56;;;7.35;63.76